sensor_id;sensor_type;location;lat;lon;timestamp;temperature;humidity
56771;DHT22;42641;59.794;17.616;2023-06-24T00:02:21;15.70;99.90
56771;DHT22;42641;59.794;17.616;2023-06-24T00:04:50;15.70;99.90
56771;DHT22;42641;59.794;17.616;2023-06-24T00:07:18;15.60;99.90
56771;DHT22;42641;59.794;17.616;2023-06-24T00:09:45;15.60;99.90
56771;DHT22;42641;59.794;17.616;2023-06-24T00:12:12;15.60;99.90
56771;DHT22;42641;59.794;17.616;2023-06-24T00:14:46;15.60;99.90
56771;DHT22;42641;59.794;17.616;2023-06-24T00:17:13;15.60;99.90
56771;DHT22;42641;59.794;17.616;2023-06-24T00:19:39;15.60;99.90
56771;DHT22;42641;59.794;17.616;2023-06-24T00:22:06;15.60;99.90
56771;DHT22;42641;59.794;17.616;2023-06-24T00:24:32;15.60;99.90
56771;DHT22;42641;59.794;17.616;2023-06-24T00:26:59;15.60;99.90
56771;DHT22;42641;59.794;17.616;2023-06-24T00:29:25;15.60;99.90
56771;DHT22;42641;59.794;17.616;2023-06-24T00:31:52;15.50;99.90
56771;DHT22;42641;59.794;17.616;2023-06-24T00:34:18;15.50;99.90
56771;DHT22;42641;59.794;17.616;2023-06-24T00:36:47;15.50;99.90
56771;DHT22;42641;59.794;17.616;2023-06-24T00:39:14;15.40;99.90
56771;DHT22;42641;59.794;17.616;2023-06-24T00:41:40;15.20;99.90
56771;DHT22;42641;59.794;17.616;2023-06-24T00:44:07;15.20;99.90
56771;DHT22;42641;59.794;17.616;2023-06-24T00:46:34;15.10;99.90
56771;DHT22;42641;59.794;17.616;2023-06-24T00:49:01;15.00;99.90
56771;DHT22;42641;59.794;17.616;2023-06-24T00:51:29;15.00;99.90
56771;DHT22;42641;59.794;17.616;2023-06-24T00:53:58;14.90;99.90
56771;DHT22;42641;59.794;17.616;2023-06-24T00:56:29;14.90;99.90
56771;DHT22;42641;59.794;17.616;2023-06-24T00:58:58;14.80;99.90
56771;DHT22;42641;59.794;17.616;2023-06-24T01:01:32;14.60;99.90
56771;DHT22;42641;59.794;17.616;2023-06-24T01:04:00;14.60;99.90
56771;DHT22;42641;59.794;17.616;2023-06-24T01:06:28;14.50;99.90
56771;DHT22;42641;59.794;17.616;2023-06-24T01:08:59;14.40;99.90
56771;DHT22;42641;59.794;17.616;2023-06-24T01:11:27;14.30;99.90
56771;DHT22;42641;59.794;17.616;2023-06-24T01:13:54;14.20;99.90
56771;DHT22;42641;59.794;17.616;2023-06-24T01:32:52;14.10;99.90
56771;DHT22;42641;59.794;17.616;2023-06-24T01:35:25;14.00;99.90
56771;DHT22;42641;59.794;17.616;2023-06-24T01:37:55;13.90;99.90
56771;DHT22;42641;59.794;17.616;2023-06-24T01:40:32;13.80;99.90
56771;DHT22;42641;59.794;17.616;2023-06-24T01:43:01;13.80;99.90
56771;DHT22;42641;59.794;17.616;2023-06-24T01:45:32;13.80;99.90
56771;DHT22;42641;59.794;17.616;2023-06-24T01:48:13;13.80;99.90
56771;DHT22;42641;59.794;17.616;2023-06-24T01:50:44;13.80;99.90
56771;DHT22;42641;59.794;17.616;2023-06-24T01:53:11;13.80;99.90
56771;DHT22;42641;59.794;17.616;2023-06-24T01:55:41;13.80;99.90
56771;DHT22;42641;59.794;17.616;2023-06-24T01:58:09;13.80;99.90
56771;DHT22;42641;59.794;17.616;2023-06-24T02:00:38;13.80;99.90
56771;DHT22;42641;59.794;17.616;2023-06-24T02:03:05;13.80;99.90
56771;DHT22;42641;59.794;17.616;2023-06-24T02:05:33;13.80;99.90
56771;DHT22;42641;59.794;17.616;2023-06-24T02:08:02;13.80;99.90
56771;DHT22;42641;59.794;17.616;2023-06-24T02:10:29;13.80;99.90
56771;DHT22;42641;59.794;17.616;2023-06-24T02:12:57;13.90;99.90
56771;DHT22;42641;59.794;17.616;2023-06-24T02:15:26;13.80;99.90
56771;DHT22;42641;59.794;17.616;2023-06-24T02:17:54;13.80;99.90
56771;DHT22;42641;59.794;17.616;2023-06-24T02:20:23;13.80;99.90
56771;DHT22;42641;59.794;17.616;2023-06-24T02:22:54;13.80;99.90
56771;DHT22;42641;59.794;17.616;2023-06-24T02:25:22;13.80;99.90
56771;DHT22;42641;59.794;17.616;2023-06-24T02:27:51;13.80;99.90
56771;DHT22;42641;59.794;17.616;2023-06-24T02:30:18;13.80;99.90
56771;DHT22;42641;59.794;17.616;2023-06-24T02:32:45;13.70;99.90
56771;DHT22;42641;59.794;17.616;2023-06-24T02:35:11;13.70;99.90
56771;DHT22;42641;59.794;17.616;2023-06-24T02:37:38;13.70;99.90
56771;DHT22;42641;59.794;17.616;2023-06-24T02:40:07;13.70;99.90
56771;DHT22;42641;59.794;17.616;2023-06-24T02:42:34;13.80;99.90
56771;DHT22;42641;59.794;17.616;2023-06-24T02:45:01;13.80;99.90
56771;DHT22;42641;59.794;17.616;2023-06-24T02:47:28;13.80;99.90
56771;DHT22;42641;59.794;17.616;2023-06-24T02:49:56;13.90;99.90
56771;DHT22;42641;59.794;17.616;2023-06-24T02:52:24;13.90;99.90
56771;DHT22;42641;59.794;17.616;2023-06-24T02:54:58;14.00;99.90
56771;DHT22;42641;59.794;17.616;2023-06-24T02:57:44;14.00;99.90
56771;DHT22;42641;59.794;17.616;2023-06-24T03:00:29;14.00;99.90
56771;DHT22;42641;59.794;17.616;2023-06-24T03:03:09;14.00;99.90
56771;DHT22;42641;59.794;17.616;2023-06-24T03:05:46;14.00;99.90
56771;DHT22;42641;59.794;17.616;2023-06-24T03:08:15;14.10;99.90
56771;DHT22;42641;59.794;17.616;2023-06-24T03:10:43;14.20;99.90
56771;DHT22;42641;59.794;17.616;2023-06-24T03:13:16;14.20;99.90
56771;DHT22;42641;59.794;17.616;2023-06-24T03:15:46;14.20;99.90
56771;DHT22;42641;59.794;17.616;2023-06-24T03:18:13;14.30;99.90
56771;DHT22;42641;59.794;17.616;2023-06-24T03:20:40;14.40;99.90
56771;DHT22;42641;59.794;17.616;2023-06-24T03:23:14;14.50;99.90
56771;DHT22;42641;59.794;17.616;2023-06-24T03:25:40;14.50;99.90
56771;DHT22;42641;59.794;17.616;2023-06-24T03:28:07;14.60;99.90
56771;DHT22;42641;59.794;17.616;2023-06-24T03:30:38;14.70;99.90
56771;DHT22;42641;59.794;17.616;2023-06-24T03:33:05;14.90;99.90
56771;DHT22;42641;59.794;17.616;2023-06-24T03:35:32;15.10;99.90
56771;DHT22;42641;59.794;17.616;2023-06-24T03:38:02;15.20;99.90
56771;DHT22;42641;59.794;17.616;2023-06-24T03:40:30;15.20;99.90
56771;DHT22;42641;59.794;17.616;2023-06-24T03:42:58;15.30;99.90
56771;DHT22;42641;59.794;17.616;2023-06-24T03:45:25;15.40;99.90
56771;DHT22;42641;59.794;17.616;2023-06-24T03:47:51;15.40;99.90
56771;DHT22;42641;59.794;17.616;2023-06-24T03:50:18;15.50;99.90
56771;DHT22;42641;59.794;17.616;2023-06-24T03:52:44;15.60;99.90
56771;DHT22;42641;59.794;17.616;2023-06-24T03:55:11;15.70;99.90
56771;DHT22;42641;59.794;17.616;2023-06-24T03:57:38;15.90;99.90
56771;DHT22;42641;59.794;17.616;2023-06-24T04:00:05;15.90;99.90
56771;DHT22;42641;59.794;17.616;2023-06-24T04:02:49;15.90;99.90
56771;DHT22;42641;59.794;17.616;2023-06-24T04:05:16;15.90;99.90
56771;DHT22;42641;59.794;17.616;2023-06-24T04:07:42;16.00;99.90
56771;DHT22;42641;59.794;17.616;2023-06-24T04:10:13;16.00;99.90
56771;DHT22;42641;59.794;17.616;2023-06-24T04:12:39;16.10;99.90
56771;DHT22;42641;59.794;17.616;2023-06-24T04:15:07;16.20;99.90
56771;DHT22;42641;59.794;17.616;2023-06-24T04:17:34;16.20;99.90
56771;DHT22;42641;59.794;17.616;2023-06-24T04:20:00;16.30;99.90
56771;DHT22;42641;59.794;17.616;2023-06-24T04:22:29;16.30;99.90
56771;DHT22;42641;59.794;17.616;2023-06-24T04:24:58;16.30;99.90
56771;DHT22;42641;59.794;17.616;2023-06-24T04:27:24;16.40;99.90
56771;DHT22;42641;59.794;17.616;2023-06-24T04:29:51;16.50;99.90
56771;DHT22;42641;59.794;17.616;2023-06-24T04:32:17;16.60;99.90
56771;DHT22;42641;59.794;17.616;2023-06-24T04:34:44;16.80;99.90
56771;DHT22;42641;59.794;17.616;2023-06-24T04:37:10;16.90;99.90
56771;DHT22;42641;59.794;17.616;2023-06-24T04:39:37;17.00;99.90
56771;DHT22;42641;59.794;17.616;2023-06-24T04:42:05;16.90;99.90
56771;DHT22;42641;59.794;17.616;2023-06-24T04:44:31;16.80;99.90
56771;DHT22;42641;59.794;17.616;2023-06-24T04:46:58;16.70;99.90
56771;DHT22;42641;59.794;17.616;2023-06-24T04:49:24;16.80;99.90
56771;DHT22;42641;59.794;17.616;2023-06-24T04:51:51;16.90;99.90
56771;DHT22;42641;59.794;17.616;2023-06-24T04:54:17;17.00;99.90
56771;DHT22;42641;59.794;17.616;2023-06-24T04:56:43;17.10;99.90
56771;DHT22;42641;59.794;17.616;2023-06-24T04:59:11;17.20;99.90
56771;DHT22;42641;59.794;17.616;2023-06-24T05:01:38;17.20;99.90
56771;DHT22;42641;59.794;17.616;2023-06-24T05:04:04;17.40;99.90
56771;DHT22;42641;59.794;17.616;2023-06-24T05:06:30;17.40;99.90
56771;DHT22;42641;59.794;17.616;2023-06-24T05:08:58;17.30;99.90
56771;DHT22;42641;59.794;17.616;2023-06-24T05:11:25;17.20;99.90
56771;DHT22;42641;59.794;17.616;2023-06-24T05:13:51;17.20;99.90
56771;DHT22;42641;59.794;17.616;2023-06-24T05:16:17;17.10;99.90
56771;DHT22;42641;59.794;17.616;2023-06-24T05:18:44;17.00;99.90
56771;DHT22;42641;59.794;17.616;2023-06-24T05:21:11;16.90;99.90
56771;DHT22;42641;59.794;17.616;2023-06-24T05:23:38;16.90;99.90
56771;DHT22;42641;59.794;17.616;2023-06-24T05:26:04;17.00;99.90
56771;DHT22;42641;59.794;17.616;2023-06-24T05:28:31;17.10;99.90
56771;DHT22;42641;59.794;17.616;2023-06-24T05:30:57;17.20;99.90
56771;DHT22;42641;59.794;17.616;2023-06-24T05:33:24;17.30;99.90
56771;DHT22;42641;59.794;17.616;2023-06-24T05:35:50;17.30;99.90
56771;DHT22;42641;59.794;17.616;2023-06-24T05:38:17;17.40;99.90
56771;DHT22;42641;59.794;17.616;2023-06-24T05:40:43;17.60;99.90
56771;DHT22;42641;59.794;17.616;2023-06-24T05:43:10;17.70;99.90
56771;DHT22;42641;59.794;17.616;2023-06-24T05:45:37;17.90;99.90
56771;DHT22;42641;59.794;17.616;2023-06-24T05:48:03;18.00;99.90
56771;DHT22;42641;59.794;17.616;2023-06-24T05:50:30;18.10;99.50
56771;DHT22;42641;59.794;17.616;2023-06-24T05:52:58;18.20;99.10
56771;DHT22;42641;59.794;17.616;2023-06-24T05:55:24;18.10;97.70
56771;DHT22;42641;59.794;17.616;2023-06-24T05:57:50;18.10;98.10
56771;DHT22;42641;59.794;17.616;2023-06-24T06:00:18;18.10;98.40
56771;DHT22;42641;59.794;17.616;2023-06-24T06:02:44;18.30;99.00
56771;DHT22;42641;59.794;17.616;2023-06-24T06:05:11;18.40;98.50
56771;DHT22;42641;59.794;17.616;2023-06-24T06:07:37;18.50;98.10
56771;DHT22;42641;59.794;17.616;2023-06-24T06:10:06;18.70;98.20
56771;DHT22;42641;59.794;17.616;2023-06-24T06:12:32;18.80;97.50
56771;DHT22;42641;59.794;17.616;2023-06-24T06:14:59;18.90;97.30
56771;DHT22;42641;59.794;17.616;2023-06-24T06:17:25;19.10;97.50
56771;DHT22;42641;59.794;17.616;2023-06-24T06:19:52;19.30;97.40
56771;DHT22;42641;59.794;17.616;2023-06-24T06:22:18;19.50;96.90
56771;DHT22;42641;59.794;17.616;2023-06-24T06:24:45;19.60;95.70
56771;DHT22;42641;59.794;17.616;2023-06-24T06:27:13;19.60;95.50
56771;DHT22;42641;59.794;17.616;2023-06-24T06:29:40;19.60;94.20
56771;DHT22;42641;59.794;17.616;2023-06-24T06:32:07;19.50;94.10
56771;DHT22;42641;59.794;17.616;2023-06-24T06:34:33;19.60;95.20
56771;DHT22;42641;59.794;17.616;2023-06-24T06:37:00;19.70;95.30
56771;DHT22;42641;59.794;17.616;2023-06-24T06:39:26;19.70;94.70
56771;DHT22;42641;59.794;17.616;2023-06-24T06:41:52;19.60;94.90
56771;DHT22;42641;59.794;17.616;2023-06-24T06:44:19;19.70;95.50
56771;DHT22;42641;59.794;17.616;2023-06-24T06:46:45;19.80;95.40
56771;DHT22;42641;59.794;17.616;2023-06-24T06:49:12;20.00;94.40
56771;DHT22;42641;59.794;17.616;2023-06-24T06:51:38;20.10;93.10
56771;DHT22;42641;59.794;17.616;2023-06-24T06:54:05;20.00;92.20
56771;DHT22;42641;59.794;17.616;2023-06-24T06:56:31;20.00;92.70
56771;DHT22;42641;59.794;17.616;2023-06-24T06:58:58;20.10;92.40
56771;DHT22;42641;59.794;17.616;2023-06-24T07:01:24;20.10;92.30
56771;DHT22;42641;59.794;17.616;2023-06-24T07:03:51;20.10;90.80
56771;DHT22;42641;59.794;17.616;2023-06-24T07:06:20;20.10;90.90
56771;DHT22;42641;59.794;17.616;2023-06-24T07:08:47;20.10;90.40
56771;DHT22;42641;59.794;17.616;2023-06-24T07:11:13;20.10;90.30
56771;DHT22;42641;59.794;17.616;2023-06-24T07:13:40;20.20;90.20
56771;DHT22;42641;59.794;17.616;2023-06-24T07:16:06;20.40;89.80
56771;DHT22;42641;59.794;17.616;2023-06-24T07:18:32;20.50;89.00
56771;DHT22;42641;59.794;17.616;2023-06-24T07:21:00;20.70;88.40
56771;DHT22;42641;59.794;17.616;2023-06-24T07:23:26;20.80;84.90
56771;DHT22;42641;59.794;17.616;2023-06-24T07:25:53;20.90;84.10
56771;DHT22;42641;59.794;17.616;2023-06-24T07:28:19;21.00;83.60
56771;DHT22;42641;59.794;17.616;2023-06-24T07:30:45;21.20;86.40
56771;DHT22;42641;59.794;17.616;2023-06-24T07:33:12;21.30;83.60
56771;DHT22;42641;59.794;17.616;2023-06-24T07:35:38;21.40;84.30
56771;DHT22;42641;59.794;17.616;2023-06-24T07:38:05;21.50;83.10
56771;DHT22;42641;59.794;17.616;2023-06-24T07:40:31;21.60;82.70
56771;DHT22;42641;59.794;17.616;2023-06-24T07:42:58;21.70;83.90
56771;DHT22;42641;59.794;17.616;2023-06-24T07:45:24;21.50;82.00
56771;DHT22;42641;59.794;17.616;2023-06-24T07:47:51;21.60;79.30
56771;DHT22;42641;59.794;17.616;2023-06-24T07:50:18;21.60;79.20
56771;DHT22;42641;59.794;17.616;2023-06-24T07:52:44;21.60;77.00
56771;DHT22;42641;59.794;17.616;2023-06-24T07:55:11;21.60;77.10
56771;DHT22;42641;59.794;17.616;2023-06-24T07:57:37;21.50;77.90
56771;DHT22;42641;59.794;17.616;2023-06-24T08:00:06;21.40;78.70
56771;DHT22;42641;59.794;17.616;2023-06-24T08:02:40;21.30;79.40
56771;DHT22;42641;59.794;17.616;2023-06-24T08:05:07;21.20;80.00
56771;DHT22;42641;59.794;17.616;2023-06-24T08:07:36;21.30;79.70
56771;DHT22;42641;59.794;17.616;2023-06-24T08:10:04;21.50;79.60
56771;DHT22;42641;59.794;17.616;2023-06-24T08:12:31;21.60;81.20
56771;DHT22;42641;59.794;17.616;2023-06-24T08:14:57;21.70;80.60
56771;DHT22;42641;59.794;17.616;2023-06-24T08:17:24;21.90;79.50
56771;DHT22;42641;59.794;17.616;2023-06-24T08:19:50;22.20;79.40
56771;DHT22;42641;59.794;17.616;2023-06-24T08:22:17;22.30;78.00
56771;DHT22;42641;59.794;17.616;2023-06-24T08:24:43;22.30;78.00
56771;DHT22;42641;59.794;17.616;2023-06-24T08:27:10;22.20;78.40
56771;DHT22;42641;59.794;17.616;2023-06-24T08:29:36;22.10;77.50
56771;DHT22;42641;59.794;17.616;2023-06-24T08:32:04;22.30;77.70
56771;DHT22;42641;59.794;17.616;2023-06-24T08:34:33;22.40;78.00
56771;DHT22;42641;59.794;17.616;2023-06-24T08:37:00;22.60;77.60
56771;DHT22;42641;59.794;17.616;2023-06-24T08:39:26;22.70;76.40
56771;DHT22;42641;59.794;17.616;2023-06-24T08:41:53;22.90;77.40
56771;DHT22;42641;59.794;17.616;2023-06-24T08:44:19;23.10;77.10
56771;DHT22;42641;59.794;17.616;2023-06-24T08:46:47;23.40;77.30
56771;DHT22;42641;59.794;17.616;2023-06-24T08:49:22;23.70;76.50
56771;DHT22;42641;59.794;17.616;2023-06-24T08:52:00;24.00;77.70
56771;DHT22;42641;59.794;17.616;2023-06-24T08:54:28;24.20;74.70
56771;DHT22;42641;59.794;17.616;2023-06-24T08:56:56;24.20;75.80
56771;DHT22;42641;59.794;17.616;2023-06-24T08:59:23;24.20;73.60
56771;DHT22;42641;59.794;17.616;2023-06-24T09:01:52;24.30;75.20
56771;DHT22;42641;59.794;17.616;2023-06-24T09:04:18;24.40;73.50
56771;DHT22;42641;59.794;17.616;2023-06-24T09:06:45;24.70;76.40
56771;DHT22;42641;59.794;17.616;2023-06-24T09:09:21;24.60;71.90
56771;DHT22;42641;59.794;17.616;2023-06-24T09:11:59;24.60;76.90
56771;DHT22;42641;59.794;17.616;2023-06-24T09:14:28;24.80;73.90
56771;DHT22;42641;59.794;17.616;2023-06-24T09:16:59;24.90;72.70
56771;DHT22;42641;59.794;17.616;2023-06-24T09:19:30;25.10;76.30
56771;DHT22;42641;59.794;17.616;2023-06-24T09:22:03;25.30;74.50
56771;DHT22;42641;59.794;17.616;2023-06-24T09:24:31;25.50;72.10
56771;DHT22;42641;59.794;17.616;2023-06-24T09:26:58;25.60;74.30
56771;DHT22;42641;59.794;17.616;2023-06-24T09:29:32;25.90;72.40
56771;DHT22;42641;59.794;17.616;2023-06-24T09:31:59;25.90;70.60
56771;DHT22;42641;59.794;17.616;2023-06-24T09:34:28;25.90;71.60
56771;DHT22;42641;59.794;17.616;2023-06-24T09:36:58;25.90;69.50
56771;DHT22;42641;59.794;17.616;2023-06-24T09:39:26;25.80;69.40
56771;DHT22;42641;59.794;17.616;2023-06-24T09:42:00;25.80;68.40
56771;DHT22;42641;59.794;17.616;2023-06-24T09:44:27;25.90;70.40
56771;DHT22;42641;59.794;17.616;2023-06-24T09:46:55;26.10;68.80
56771;DHT22;42641;59.794;17.616;2023-06-24T09:49:25;26.30;69.20
56771;DHT22;42641;59.794;17.616;2023-06-24T09:51:58;26.60;67.50
56771;DHT22;42641;59.794;17.616;2023-06-24T09:54:27;26.50;67.50
56771;DHT22;42641;59.794;17.616;2023-06-24T09:57:01;26.60;67.70
56771;DHT22;42641;59.794;17.616;2023-06-24T09:59:28;26.70;68.20
56771;DHT22;42641;59.794;17.616;2023-06-24T10:01:57;26.90;66.00
56771;DHT22;42641;59.794;17.616;2023-06-24T10:04:24;27.20;68.00
56771;DHT22;42641;59.794;17.616;2023-06-24T10:06:52;27.60;68.80
56771;DHT22;42641;59.794;17.616;2023-06-24T10:09:19;27.70;64.80
56771;DHT22;42641;59.794;17.616;2023-06-24T10:11:46;27.80;66.00
56771;DHT22;42641;59.794;17.616;2023-06-24T10:14:16;27.80;64.00
56771;DHT22;42641;59.794;17.616;2023-06-24T10:16:44;27.80;64.20
56771;DHT22;42641;59.794;17.616;2023-06-24T10:19:19;27.50;62.90
56771;DHT22;42641;59.794;17.616;2023-06-24T10:21:53;27.80;66.40
56771;DHT22;42641;59.794;17.616;2023-06-24T10:24:34;28.20;64.20
56771;DHT22;42641;59.794;17.616;2023-06-24T10:27:08;28.40;63.70
56771;DHT22;42641;59.794;17.616;2023-06-24T10:29:36;28.80;63.70
56771;DHT22;42641;59.794;17.616;2023-06-24T10:32:06;28.90;61.50
56771;DHT22;42641;59.794;17.616;2023-06-24T10:34:43;28.60;61.40
56771;DHT22;42641;59.794;17.616;2023-06-24T10:37:24;28.40;61.40
56771;DHT22;42641;59.794;17.616;2023-06-24T10:39:56;28.40;64.10
56771;DHT22;42641;59.794;17.616;2023-06-24T10:42:30;28.40;62.20
56771;DHT22;42641;59.794;17.616;2023-06-24T10:45:02;28.40;64.20
56771;DHT22;42641;59.794;17.616;2023-06-24T10:47:47;28.80;62.70
56771;DHT22;42641;59.794;17.616;2023-06-24T10:50:18;28.80;61.00
56771;DHT22;42641;59.794;17.616;2023-06-24T10:52:49;29.00;62.70
56771;DHT22;42641;59.794;17.616;2023-06-24T10:55:19;29.30;60.20
56771;DHT22;42641;59.794;17.616;2023-06-24T10:57:46;29.20;60.40
56771;DHT22;42641;59.794;17.616;2023-06-24T11:00:14;29.30;62.70
56771;DHT22;42641;59.794;17.616;2023-06-24T11:02:41;29.30;60.10
56771;DHT22;42641;59.794;17.616;2023-06-24T11:05:08;29.70;59.90
56771;DHT22;42641;59.794;17.616;2023-06-24T11:07:37;29.70;59.40
56771;DHT22;42641;59.794;17.616;2023-06-24T11:10:05;29.80;59.20
56771;DHT22;42641;59.794;17.616;2023-06-24T11:12:36;30.40;58.70
56771;DHT22;42641;59.794;17.616;2023-06-24T11:15:08;31.10;58.50
56771;DHT22;42641;59.794;17.616;2023-06-24T11:17:36;30.90;56.20
56771;DHT22;42641;59.794;17.616;2023-06-24T11:20:08;31.10;57.90
56771;DHT22;42641;59.794;17.616;2023-06-24T11:22:34;31.50;56.60
56771;DHT22;42641;59.794;17.616;2023-06-24T11:25:01;31.70;55.10
56771;DHT22;42641;59.794;17.616;2023-06-24T11:27:29;31.20;54.40
56771;DHT22;42641;59.794;17.616;2023-06-24T11:29:59;31.00;54.80
56771;DHT22;42641;59.794;17.616;2023-06-24T11:32:42;31.20;56.60
56771;DHT22;42641;59.794;17.616;2023-06-24T11:35:11;31.90;55.40
56771;DHT22;42641;59.794;17.616;2023-06-24T11:37:41;32.50;54.80
56771;DHT22;42641;59.794;17.616;2023-06-24T11:40:09;32.50;54.50
56771;DHT22;42641;59.794;17.616;2023-06-24T11:42:39;32.20;53.70
56771;DHT22;42641;59.794;17.616;2023-06-24T11:45:10;32.10;54.00
56771;DHT22;42641;59.794;17.616;2023-06-24T11:47:39;32.20;54.30
56771;DHT22;42641;59.794;17.616;2023-06-24T11:50:07;32.90;53.90
56771;DHT22;42641;59.794;17.616;2023-06-24T11:52:47;33.10;52.90
56771;DHT22;42641;59.794;17.616;2023-06-24T11:55:22;32.60;53.00
56771;DHT22;42641;59.794;17.616;2023-06-24T11:58:00;32.30;52.50
56771;DHT22;42641;59.794;17.616;2023-06-24T12:02:56;31.60;53.50
56771;DHT22;42641;59.794;17.616;2023-06-24T12:05:27;31.10;54.70
56771;DHT22;42641;59.794;17.616;2023-06-24T12:07:59;31.40;53.60
56771;DHT22;42641;59.794;17.616;2023-06-24T12:10:27;31.50;53.90
56771;DHT22;42641;59.794;17.616;2023-06-24T12:12:53;31.20;53.50
56771;DHT22;42641;59.794;17.616;2023-06-24T12:15:20;31.10;54.70
56771;DHT22;42641;59.794;17.616;2023-06-24T12:17:46;30.80;55.40
56771;DHT22;42641;59.794;17.616;2023-06-24T12:20:14;30.50;54.80
56771;DHT22;42641;59.794;17.616;2023-06-24T12:22:41;30.80;55.30
56771;DHT22;42641;59.794;17.616;2023-06-24T12:25:09;30.80;54.50
56771;DHT22;42641;59.794;17.616;2023-06-24T12:27:35;30.70;55.00
56771;DHT22;42641;59.794;17.616;2023-06-24T12:30:02;30.60;55.80
56771;DHT22;42641;59.794;17.616;2023-06-24T12:32:28;30.90;55.50
56771;DHT22;42641;59.794;17.616;2023-06-24T12:34:55;31.00;55.50
56771;DHT22;42641;59.794;17.616;2023-06-24T12:37:22;31.10;54.30
56771;DHT22;42641;59.794;17.616;2023-06-24T12:39:48;30.90;54.10
56771;DHT22;42641;59.794;17.616;2023-06-24T12:42:17;30.60;54.70
56771;DHT22;42641;59.794;17.616;2023-06-24T12:44:43;30.70;54.90
56771;DHT22;42641;59.794;17.616;2023-06-24T12:47:10;31.10;55.00
56771;DHT22;42641;59.794;17.616;2023-06-24T12:49:36;31.60;53.70
56771;DHT22;42641;59.794;17.616;2023-06-24T12:52:03;32.20;53.10
56771;DHT22;42641;59.794;17.616;2023-06-24T12:54:29;32.50;52.50
56771;DHT22;42641;59.794;17.616;2023-06-24T12:56:55;32.80;51.60
56771;DHT22;42641;59.794;17.616;2023-06-24T12:59:23;32.80;51.70
56771;DHT22;42641;59.794;17.616;2023-06-24T13:01:50;32.90;52.00
56771;DHT22;42641;59.794;17.616;2023-06-24T13:04:16;33.10;50.70
56771;DHT22;42641;59.794;17.616;2023-06-24T13:06:46;32.70;51.80
56771;DHT22;42641;59.794;17.616;2023-06-24T13:09:12;32.20;51.30
56771;DHT22;42641;59.794;17.616;2023-06-24T13:11:39;31.90;52.40
56771;DHT22;42641;59.794;17.616;2023-06-24T13:14:06;31.90;52.80
56771;DHT22;42641;59.794;17.616;2023-06-24T13:16:33;32.20;52.70
56771;DHT22;42641;59.794;17.616;2023-06-24T13:18:59;32.40;52.60
56771;DHT22;42641;59.794;17.616;2023-06-24T13:21:25;32.50;51.20
56771;DHT22;42641;59.794;17.616;2023-06-24T13:23:52;32.80;51.40
56771;DHT22;42641;59.794;17.616;2023-06-24T13:26:18;33.40;51.10
56771;DHT22;42641;59.794;17.616;2023-06-24T13:28:45;34.20;50.30
56771;DHT22;42641;59.794;17.616;2023-06-24T13:31:11;34.50;50.80
56771;DHT22;42641;59.794;17.616;2023-06-24T13:33:38;34.80;50.60
56771;DHT22;42641;59.794;17.616;2023-06-24T13:36:07;35.20;50.20
56771;DHT22;42641;59.794;17.616;2023-06-24T13:38:33;35.60;49.40
56771;DHT22;42641;59.794;17.616;2023-06-24T13:41:00;35.80;48.60
56771;DHT22;42641;59.794;17.616;2023-06-24T13:43:26;36.10;48.40
56771;DHT22;42641;59.794;17.616;2023-06-24T13:45:52;36.50;47.80
56771;DHT22;42641;59.794;17.616;2023-06-24T13:48:19;36.40;46.80
56771;DHT22;42641;59.794;17.616;2023-06-24T13:50:45;36.10;47.00
56771;DHT22;42641;59.794;17.616;2023-06-24T13:53:12;36.20;48.10
56771;DHT22;42641;59.794;17.616;2023-06-24T13:55:38;35.90;46.90
56771;DHT22;42641;59.794;17.616;2023-06-24T13:58:05;35.80;49.20
56771;DHT22;42641;59.794;17.616;2023-06-24T14:00:31;36.00;49.70
56771;DHT22;42641;59.794;17.616;2023-06-24T14:02:57;36.10;48.20
56771;DHT22;42641;59.794;17.616;2023-06-24T14:05:24;36.50;47.30
56771;DHT22;42641;59.794;17.616;2023-06-24T14:07:50;36.60;46.40
56771;DHT22;42641;59.794;17.616;2023-06-24T14:10:17;37.00;47.30
56771;DHT22;42641;59.794;17.616;2023-06-24T14:12:43;37.60;45.40
56771;DHT22;42641;59.794;17.616;2023-06-24T14:15:10;37.50;47.20
56771;DHT22;42641;59.794;17.616;2023-06-24T14:17:36;37.50;45.30
56771;DHT22;42641;59.794;17.616;2023-06-24T14:20:03;37.70;45.60
56771;DHT22;42641;59.794;17.616;2023-06-24T14:22:30;36.80;46.90
56771;DHT22;42641;59.794;17.616;2023-06-24T14:24:56;36.00;46.80
56771;DHT22;42641;59.794;17.616;2023-06-24T14:27:23;35.90;46.90
56771;DHT22;42641;59.794;17.616;2023-06-24T14:29:49;36.40;46.50
56771;DHT22;42641;59.794;17.616;2023-06-24T14:32:16;36.80;45.70
56771;DHT22;42641;59.794;17.616;2023-06-24T14:34:42;36.80;44.80
56771;DHT22;42641;59.794;17.616;2023-06-24T14:37:09;36.80;45.80
56771;DHT22;42641;59.794;17.616;2023-06-24T14:39:35;36.80;45.60
56771;DHT22;42641;59.794;17.616;2023-06-24T14:42:02;36.90;46.70
56771;DHT22;42641;59.794;17.616;2023-06-24T14:44:28;37.30;46.50
56771;DHT22;42641;59.794;17.616;2023-06-24T14:46:55;37.30;45.10
56771;DHT22;42641;59.794;17.616;2023-06-24T14:49:21;37.70;44.70
56771;DHT22;42641;59.794;17.616;2023-06-24T14:51:47;37.50;45.40
56771;DHT22;42641;59.794;17.616;2023-06-24T14:54:14;37.20;45.90
56771;DHT22;42641;59.794;17.616;2023-06-24T14:56:40;37.70;44.60
56771;DHT22;42641;59.794;17.616;2023-06-24T14:59:07;38.50;44.20
56771;DHT22;42641;59.794;17.616;2023-06-24T15:01:33;38.70;43.30
56771;DHT22;42641;59.794;17.616;2023-06-24T15:03:59;38.20;43.40
56771;DHT22;42641;59.794;17.616;2023-06-24T15:06:26;38.30;42.70
56771;DHT22;42641;59.794;17.616;2023-06-24T15:08:52;37.90;43.60
56771;DHT22;42641;59.794;17.616;2023-06-24T15:11:19;36.80;43.90
56771;DHT22;42641;59.794;17.616;2023-06-24T15:13:45;36.30;44.60
56771;DHT22;42641;59.794;17.616;2023-06-24T15:16:11;36.50;44.60
56771;DHT22;42641;59.794;17.616;2023-06-24T15:18:48;35.80;45.30
56771;DHT22;42641;59.794;17.616;2023-06-24T15:21:16;34.80;46.00
56771;DHT22;42641;59.794;17.616;2023-06-24T15:23:42;34.30;46.90
56771;DHT22;42641;59.794;17.616;2023-06-24T15:26:09;33.80;47.50
56771;DHT22;42641;59.794;17.616;2023-06-24T15:28:35;33.10;47.60
56771;DHT22;42641;59.794;17.616;2023-06-24T15:31:01;32.70;49.30
56771;DHT22;42641;59.794;17.616;2023-06-24T15:33:28;33.20;48.90
56771;DHT22;42641;59.794;17.616;2023-06-24T15:35:54;33.60;47.40
56771;DHT22;42641;59.794;17.616;2023-06-24T15:38:21;34.10;46.80
56771;DHT22;42641;59.794;17.616;2023-06-24T15:40:47;34.50;47.80